Pagrindinis puslapis
METAR-TAF:

METAR-TAF

Oro uostai :

Triestas, Italija

platuma: 45-39N, ilguma: 013-45E, Aukštis: 8 m

Dabartinis oras

Ataskaita buvo paskelbta 45 minutes, ne 10:55 UTC
Vėjas 8 kt iš Rytų
Temperatūra 22°C
Drėgmė 35%
Slėgis 1023 hPa
Matomumas 10 km arba daugiau
nėra debesų žemiau 1500 m ir nėra kamuolinių lietaus debesų

METAR: LIVT 211055Z 08008KT CAVOK 22/06 Q1023 RMK SKC QUK 2 QUL 1 NE VIS MAR 20 KM VIS MIN 9999

Laikas: 13:40 (11:40 UTC)


TAF: trūkstamas

Orai ataskaitas ir orų prognozės (METAR, TAF).

turimą stotys yra geltonos ir raudonos taškus žemėlapyje.

Perkelti pele per norėdami pamatyti stoties vardą.

Tada spustelėkite, norėdami matyti oro stebėjimo ir prognozės.

Norėdami pakeisti žemėlapį: spustelėkite ant žalios mygtukų su juodo kryžiaus žemyn,; žalią mygtuką su brūkšneliu, jei norite nutolinti; arba žalių rodyklių gretimoms žemėlapius.


METAR-TAF: